sensor_id;sensor_type;location;lat;lon;timestamp;P1;durP1;ratioP1;P2;durP2;ratioP2
65567;SDS011;52211;50.154;8.682;2024-01-06T00:01:28;3.67;;;2.30;;
65567;SDS011;52211;50.154;8.682;2024-01-06T00:03:58;2.73;;;1.93;;
65567;SDS011;52211;50.154;8.682;2024-01-06T00:06:30;2.37;;;1.47;;
65567;SDS011;52211;50.154;8.682;2024-01-06T00:08:59;3.50;;;1.90;;
65567;SDS011;52211;50.154;8.682;2024-01-06T00:11:29;4.37;;;2.30;;
65567;SDS011;52211;50.154;8.682;2024-01-06T00:13:58;6.73;;;2.10;;
65567;SDS011;52211;50.154;8.682;2024-01-06T00:16:25;5.97;;;2.33;;
65567;SDS011;52211;50.154;8.682;2024-01-06T00:18:55;3.87;;;2.27;;
65567;SDS011;52211;50.154;8.682;2024-01-06T00:21:22;5.50;;;2.30;;
65567;SDS011;52211;50.154;8.682;2024-01-06T00:23:51;3.23;;;1.97;;
65567;SDS011;52211;50.154;8.682;2024-01-06T00:26:18;6.13;;;2.07;;
65567;SDS011;52211;50.154;8.682;2024-01-06T00:28:45;3.53;;;2.20;;
65567;SDS011;52211;50.154;8.682;2024-01-06T00:31:13;4.50;;;2.00;;
65567;SDS011;52211;50.154;8.682;2024-01-06T00:33:44;4.77;;;2.03;;
65567;SDS011;52211;50.154;8.682;2024-01-06T00:36:16;5.70;;;2.17;;
65567;SDS011;52211;50.154;8.682;2024-01-06T00:38:43;4.20;;;2.30;;
65567;SDS011;52211;50.154;8.682;2024-01-06T00:41:10;4.37;;;2.70;;
65567;SDS011;52211;50.154;8.682;2024-01-06T00:43:37;4.67;;;2.03;;
65567;SDS011;52211;50.154;8.682;2024-01-06T00:46:06;4.33;;;2.13;;
65567;SDS011;52211;50.154;8.682;2024-01-06T00:48:33;4.70;;;2.07;;
65567;SDS011;52211;50.154;8.682;2024-01-06T00:51:01;4.27;;;2.20;;
65567;SDS011;52211;50.154;8.682;2024-01-06T00:53:28;3.30;;;2.30;;
65567;SDS011;52211;50.154;8.682;2024-01-06T00:55:59;3.17;;;2.40;;
65567;SDS011;52211;50.154;8.682;2024-01-06T00:58:29;2.70;;;2.17;;
65567;SDS011;52211;50.154;8.682;2024-01-06T01:01:00;4.57;;;2.10;;
65567;SDS011;52211;50.154;8.682;2024-01-06T01:03:27;4.13;;;2.20;;
65567;SDS011;52211;50.154;8.682;2024-01-06T01:05:57;2.63;;;2.10;;
65567;SDS011;52211;50.154;8.682;2024-01-06T01:08:26;4.37;;;2.17;;
65567;SDS011;52211;50.154;8.682;2024-01-06T01:10:53;3.40;;;1.60;;
65567;SDS011;52211;50.154;8.682;2024-01-06T01:13:20;5.50;;;2.63;;
65567;SDS011;52211;50.154;8.682;2024-01-06T01:15:49;2.23;;;1.97;;
65567;SDS011;52211;50.154;8.682;2024-01-06T01:18:16;3.67;;;2.00;;
65567;SDS011;52211;50.154;8.682;2024-01-06T01:20:45;2.37;;;1.90;;
65567;SDS011;52211;50.154;8.682;2024-01-06T01:23:12;1.93;;;1.73;;
65567;SDS011;52211;50.154;8.682;2024-01-06T01:25:41;5.50;;;2.43;;
65567;SDS011;52211;50.154;8.682;2024-01-06T01:28:08;2.97;;;1.80;;
65567;SDS011;52211;50.154;8.682;2024-01-06T01:30:35;5.03;;;2.13;;
65567;SDS011;52211;50.154;8.682;2024-01-06T01:33:02;2.93;;;2.17;;
65567;SDS011;52211;50.154;8.682;2024-01-06T01:35:35;6.70;;;2.23;;
65567;SDS011;52211;50.154;8.682;2024-01-06T01:38:02;3.60;;;2.07;;
65567;SDS011;52211;50.154;8.682;2024-01-06T01:40:31;3.00;;;2.00;;
65567;SDS011;52211;50.154;8.682;2024-01-06T01:42:58;4.53;;;2.23;;
65567;SDS011;52211;50.154;8.682;2024-01-06T01:45:25;2.17;;;1.80;;
65567;SDS011;52211;50.154;8.682;2024-01-06T01:47:57;4.53;;;1.70;;
65567;SDS011;52211;50.154;8.682;2024-01-06T01:50:29;4.30;;;2.27;;
65567;SDS011;52211;50.154;8.682;2024-01-06T01:52:57;8.00;;;2.93;;
65567;SDS011;52211;50.154;8.682;2024-01-06T01:55:28;2.73;;;2.33;;
65567;SDS011;52211;50.154;8.682;2024-01-06T01:57:55;3.67;;;2.20;;
65567;SDS011;52211;50.154;8.682;2024-01-06T02:00:22;2.83;;;2.00;;
65567;SDS011;52211;50.154;8.682;2024-01-06T02:02:52;3.50;;;2.17;;
65567;SDS011;52211;50.154;8.682;2024-01-06T02:05:24;4.07;;;2.07;;
65567;SDS011;52211;50.154;8.682;2024-01-06T02:07:56;4.40;;;2.30;;
65567;SDS011;52211;50.154;8.682;2024-01-06T02:10:28;3.13;;;1.70;;
65567;SDS011;52211;50.154;8.682;2024-01-06T02:12:55;5.83;;;2.13;;
65567;SDS011;52211;50.154;8.682;2024-01-06T02:15:34;3.63;;;1.90;;
65567;SDS011;52211;50.154;8.682;2024-01-06T02:18:03;3.63;;;1.90;;
65567;SDS011;52211;50.154;8.682;2024-01-06T02:20:31;5.43;;;1.80;;
65567;SDS011;52211;50.154;8.682;2024-01-06T02:23:01;2.33;;;1.80;;
65567;SDS011;52211;50.154;8.682;2024-01-06T02:25:30;5.40;;;1.93;;
65567;SDS011;52211;50.154;8.682;2024-01-06T02:27:57;4.33;;;1.80;;
65567;SDS011;52211;50.154;8.682;2024-01-06T02:30:24;2.87;;;1.70;;
65567;SDS011;52211;50.154;8.682;2024-01-06T02:32:54;3.27;;;1.90;;
65567;SDS011;52211;50.154;8.682;2024-01-06T02:35:23;3.53;;;1.60;;
65567;SDS011;52211;50.154;8.682;2024-01-06T02:37:52;1.97;;;1.50;;
65567;SDS011;52211;50.154;8.682;2024-01-06T02:40:19;1.57;;;1.47;;
65567;SDS011;52211;50.154;8.682;2024-01-06T02:42:51;4.83;;;1.97;;
65567;SDS011;52211;50.154;8.682;2024-01-06T02:45:18;4.60;;;2.20;;
65567;SDS011;52211;50.154;8.682;2024-01-06T02:47:44;2.13;;;1.80;;
65567;SDS011;52211;50.154;8.682;2024-01-06T02:50:15;3.10;;;1.40;;
65567;SDS011;52211;50.154;8.682;2024-01-06T02:52:44;2.93;;;2.07;;
65567;SDS011;52211;50.154;8.682;2024-01-06T02:55:16;6.40;;;1.80;;
65567;SDS011;52211;50.154;8.682;2024-01-06T02:57:45;2.37;;;1.27;;
65567;SDS011;52211;50.154;8.682;2024-01-06T03:00:14;5.00;;;1.93;;
65567;SDS011;52211;50.154;8.682;2024-01-06T03:02:44;3.43;;;1.90;;
65567;SDS011;52211;50.154;8.682;2024-01-06T03:05:14;4.53;;;1.93;;
65567;SDS011;52211;50.154;8.682;2024-01-06T03:07:43;6.17;;;1.93;;
65567;SDS011;52211;50.154;8.682;2024-01-06T03:10:11;3.40;;;2.17;;
65567;SDS011;52211;50.154;8.682;2024-01-06T03:12:38;4.20;;;2.03;;
65567;SDS011;52211;50.154;8.682;2024-01-06T03:15:09;3.40;;;2.53;;
65567;SDS011;52211;50.154;8.682;2024-01-06T03:17:38;4.13;;;2.47;;
65567;SDS011;52211;50.154;8.682;2024-01-06T03:20:10;3.43;;;1.77;;
65567;SDS011;52211;50.154;8.682;2024-01-06T03:22:37;4.27;;;2.43;;
65567;SDS011;52211;50.154;8.682;2024-01-06T03:25:04;5.03;;;2.17;;
65567;SDS011;52211;50.154;8.682;2024-01-06T03:27:32;3.27;;;2.30;;
65567;SDS011;52211;50.154;8.682;2024-01-06T03:30:04;2.97;;;1.87;;
65567;SDS011;52211;50.154;8.682;2024-01-06T03:32:32;3.03;;;2.00;;
65567;SDS011;52211;50.154;8.682;2024-01-06T03:34:59;4.43;;;2.50;;
65567;SDS011;52211;50.154;8.682;2024-01-06T03:37:26;6.40;;;3.23;;
65567;SDS011;52211;50.154;8.682;2024-01-06T03:39:53;2.57;;;1.93;;
65567;SDS011;52211;50.154;8.682;2024-01-06T03:42:20;3.80;;;2.10;;
65567;SDS011;52211;50.154;8.682;2024-01-06T03:44:49;3.37;;;2.00;;
65567;SDS011;52211;50.154;8.682;2024-01-06T03:47:21;4.00;;;1.80;;
65567;SDS011;52211;50.154;8.682;2024-01-06T03:49:47;3.60;;;2.23;;
65567;SDS011;52211;50.154;8.682;2024-01-06T03:52:17;2.83;;;1.53;;
65567;SDS011;52211;50.154;8.682;2024-01-06T03:54:46;3.30;;;2.50;;
65567;SDS011;52211;50.154;8.682;2024-01-06T03:57:16;5.43;;;2.40;;
65567;SDS011;52211;50.154;8.682;2024-01-06T03:59:45;3.53;;;2.13;;
65567;SDS011;52211;50.154;8.682;2024-01-06T04:02:12;3.27;;;2.53;;
65567;SDS011;52211;50.154;8.682;2024-01-06T04:04:39;3.30;;;1.97;;
65567;SDS011;52211;50.154;8.682;2024-01-06T04:07:08;3.70;;;1.70;;
65567;SDS011;52211;50.154;8.682;2024-01-06T04:09:37;3.37;;;2.10;;
65567;SDS011;52211;50.154;8.682;2024-01-06T04:12:13;5.23;;;2.33;;
65567;SDS011;52211;50.154;8.682;2024-01-06T04:14:40;5.83;;;2.13;;
65567;SDS011;52211;50.154;8.682;2024-01-06T04:17:09;3.33;;;1.90;;
65567;SDS011;52211;50.154;8.682;2024-01-06T04:19:41;4.07;;;2.03;;
65567;SDS011;52211;50.154;8.682;2024-01-06T04:22:10;3.80;;;2.07;;
65567;SDS011;52211;50.154;8.682;2024-01-06T04:24:37;6.40;;;2.47;;
65567;SDS011;52211;50.154;8.682;2024-01-06T04:27:04;2.97;;;1.70;;
65567;SDS011;52211;50.154;8.682;2024-01-06T04:29:31;3.67;;;2.00;;
65567;SDS011;52211;50.154;8.682;2024-01-06T04:32:03;3.60;;;2.20;;
65567;SDS011;52211;50.154;8.682;2024-01-06T04:34:30;3.70;;;2.20;;
65567;SDS011;52211;50.154;8.682;2024-01-06T04:36:57;4.60;;;1.77;;
65567;SDS011;52211;50.154;8.682;2024-01-06T04:39:31;3.60;;;1.93;;
65567;SDS011;52211;50.154;8.682;2024-01-06T04:42:03;3.93;;;2.07;;
65567;SDS011;52211;50.154;8.682;2024-01-06T04:44:31;3.23;;;1.80;;
65567;SDS011;52211;50.154;8.682;2024-01-06T04:46:58;4.60;;;2.20;;
65567;SDS011;52211;50.154;8.682;2024-01-06T04:49:24;2.43;;;1.93;;
65567;SDS011;52211;50.154;8.682;2024-01-06T04:51:55;3.97;;;1.80;;
65567;SDS011;52211;50.154;8.682;2024-01-06T04:54:24;5.43;;;2.50;;
65567;SDS011;52211;50.154;8.682;2024-01-06T04:56:51;3.43;;;1.97;;
65567;SDS011;52211;50.154;8.682;2024-01-06T04:59:20;2.47;;;1.73;;
65567;SDS011;52211;50.154;8.682;2024-01-06T05:01:48;3.93;;;1.80;;
65567;SDS011;52211;50.154;8.682;2024-01-06T05:04:15;3.37;;;1.90;;
65567;SDS011;52211;50.154;8.682;2024-01-06T05:06:42;2.03;;;1.83;;
65567;SDS011;52211;50.154;8.682;2024-01-06T05:09:14;2.00;;;1.77;;
65567;SDS011;52211;50.154;8.682;2024-01-06T05:11:43;4.13;;;1.60;;
65567;SDS011;52211;50.154;8.682;2024-01-06T05:14:15;4.03;;;1.90;;
65567;SDS011;52211;50.154;8.682;2024-01-06T05:16:42;5.97;;;1.80;;
65567;SDS011;52211;50.154;8.682;2024-01-06T05:19:09;4.57;;;1.97;;
65567;SDS011;52211;50.154;8.682;2024-01-06T05:21:46;4.30;;;2.20;;
65567;SDS011;52211;50.154;8.682;2024-01-06T05:24:15;2.90;;;2.17;;
65567;SDS011;52211;50.154;8.682;2024-01-06T05:26:45;2.77;;;2.00;;
65567;SDS011;52211;50.154;8.682;2024-01-06T05:29:18;2.73;;;2.10;;
65567;SDS011;52211;50.154;8.682;2024-01-06T05:31:47;5.27;;;2.13;;
65567;SDS011;52211;50.154;8.682;2024-01-06T05:34:18;2.30;;;2.10;;
65567;SDS011;52211;50.154;8.682;2024-01-06T05:36:48;3.93;;;2.37;;
65567;SDS011;52211;50.154;8.682;2024-01-06T05:39:15;2.90;;;2.10;;
65567;SDS011;52211;50.154;8.682;2024-01-06T05:41:44;5.80;;;2.20;;
65567;SDS011;52211;50.154;8.682;2024-01-06T05:44:13;2.67;;;1.97;;
65567;SDS011;52211;50.154;8.682;2024-01-06T05:46:40;10.17;;;2.60;;
65567;SDS011;52211;50.154;8.682;2024-01-06T05:49:11;3.93;;;1.70;;
65567;SDS011;52211;50.154;8.682;2024-01-06T05:51:44;5.63;;;2.07;;
65567;SDS011;52211;50.154;8.682;2024-01-06T05:54:12;5.70;;;2.13;;
65567;SDS011;52211;50.154;8.682;2024-01-06T05:56:40;3.80;;;2.00;;
65567;SDS011;52211;50.154;8.682;2024-01-06T05:59:09;3.27;;;1.87;;
65567;SDS011;52211;50.154;8.682;2024-01-06T06:01:35;6.30;;;2.20;;
65567;SDS011;52211;50.154;8.682;2024-01-06T06:04:02;1.90;;;1.70;;
65567;SDS011;52211;50.154;8.682;2024-01-06T06:06:34;3.20;;;1.90;;
65567;SDS011;52211;50.154;8.682;2024-01-06T06:09:06;3.20;;;1.70;;
65567;SDS011;52211;50.154;8.682;2024-01-06T06:11:39;4.20;;;2.17;;
65567;SDS011;52211;50.154;8.682;2024-01-06T06:14:05;2.20;;;1.80;;
65567;SDS011;52211;50.154;8.682;2024-01-06T06:16:34;5.57;;;2.50;;
65567;SDS011;52211;50.154;8.682;2024-01-06T06:19:06;3.57;;;2.40;;
65567;SDS011;52211;50.154;8.682;2024-01-06T06:21:35;3.70;;;2.60;;
65567;SDS011;52211;50.154;8.682;2024-01-06T06:24:07;6.47;;;2.43;;
65567;SDS011;52211;50.154;8.682;2024-01-06T06:26:38;7.93;;;2.17;;
65567;SDS011;52211;50.154;8.682;2024-01-06T06:29:10;3.33;;;2.20;;
65567;SDS011;52211;50.154;8.682;2024-01-06T06:31:39;4.07;;;2.57;;
65567;SDS011;52211;50.154;8.682;2024-01-06T06:34:06;4.50;;;2.30;;
65567;SDS011;52211;50.154;8.682;2024-01-06T06:36:36;3.13;;;1.97;;
65567;SDS011;52211;50.154;8.682;2024-01-06T06:39:03;4.67;;;2.20;;
65567;SDS011;52211;50.154;8.682;2024-01-06T06:41:30;2.63;;;2.37;;
65567;SDS011;52211;50.154;8.682;2024-01-06T06:44:00;4.70;;;2.40;;
65567;SDS011;52211;50.154;8.682;2024-01-06T06:46:34;4.47;;;2.10;;
65567;SDS011;52211;50.154;8.682;2024-01-06T06:49:01;5.73;;;2.03;;
65567;SDS011;52211;50.154;8.682;2024-01-06T06:51:31;3.90;;;2.10;;
65567;SDS011;52211;50.154;8.682;2024-01-06T06:54:00;5.90;;;2.73;;
65567;SDS011;52211;50.154;8.682;2024-01-06T06:56:33;4.10;;;2.17;;
65567;SDS011;52211;50.154;8.682;2024-01-06T06:59:00;5.17;;;2.20;;
65567;SDS011;52211;50.154;8.682;2024-01-06T07:01:28;3.43;;;2.07;;
65567;SDS011;52211;50.154;8.682;2024-01-06T07:03:58;3.07;;;2.17;;
65567;SDS011;52211;50.154;8.682;2024-01-06T07:06:25;5.90;;;2.90;;
65567;SDS011;52211;50.154;8.682;2024-01-06T07:08:55;3.07;;;1.87;;
65567;SDS011;52211;50.154;8.682;2024-01-06T07:11:22;4.73;;;2.27;;
65567;SDS011;52211;50.154;8.682;2024-01-06T07:13:50;3.40;;;2.57;;
65567;SDS011;52211;50.154;8.682;2024-01-06T07:16:20;3.30;;;2.00;;
65567;SDS011;52211;50.154;8.682;2024-01-06T07:18:51;4.13;;;2.63;;
65567;SDS011;52211;50.154;8.682;2024-01-06T07:21:20;3.07;;;2.00;;
65567;SDS011;52211;50.154;8.682;2024-01-06T07:23:50;4.80;;;2.37;;
65567;SDS011;52211;50.154;8.682;2024-01-06T07:26:16;4.60;;;1.90;;
65567;SDS011;52211;50.154;8.682;2024-01-06T07:28:44;3.97;;;2.37;;
65567;SDS011;52211;50.154;8.682;2024-01-06T07:31:13;2.30;;;2.10;;
65567;SDS011;52211;50.154;8.682;2024-01-06T07:33:41;3.03;;;2.40;;
65567;SDS011;52211;50.154;8.682;2024-01-06T07:36:08;3.33;;;2.63;;
65567;SDS011;52211;50.154;8.682;2024-01-06T07:38:37;5.03;;;2.00;;
65567;SDS011;52211;50.154;8.682;2024-01-06T07:41:06;2.93;;;2.47;;
65567;SDS011;52211;50.154;8.682;2024-01-06T07:43:33;5.37;;;2.57;;
65567;SDS011;52211;50.154;8.682;2024-01-06T07:46:05;4.27;;;2.70;;
65567;SDS011;52211;50.154;8.682;2024-01-06T07:48:33;5.57;;;2.57;;
65567;SDS011;52211;50.154;8.682;2024-01-06T07:51:00;3.30;;;2.27;;
65567;SDS011;52211;50.154;8.682;2024-01-06T07:53:29;5.60;;;2.67;;
65567;SDS011;52211;50.154;8.682;2024-01-06T07:55:59;3.57;;;2.13;;
65567;SDS011;52211;50.154;8.682;2024-01-06T07:58:26;6.33;;;2.80;;
65567;SDS011;52211;50.154;8.682;2024-01-06T08:00:59;4.60;;;2.27;;
65567;SDS011;52211;50.154;8.682;2024-01-06T08:03:26;2.80;;;2.60;;
65567;SDS011;52211;50.154;8.682;2024-01-06T08:05:53;2.53;;;2.30;;
65567;SDS011;52211;50.154;8.682;2024-01-06T08:08:25;3.10;;;2.00;;
65567;SDS011;52211;50.154;8.682;2024-01-06T08:10:55;4.90;;;2.10;;
65567;SDS011;52211;50.154;8.682;2024-01-06T08:13:27;4.80;;;2.27;;
65567;SDS011;52211;50.154;8.682;2024-01-06T08:15:53;3.00;;;1.90;;
65567;SDS011;52211;50.154;8.682;2024-01-06T08:18:25;4.53;;;2.30;;
65567;SDS011;52211;50.154;8.682;2024-01-06T08:20:53;2.67;;;2.37;;
65567;SDS011;52211;50.154;8.682;2024-01-06T08:23:20;2.60;;;2.10;;
65567;SDS011;52211;50.154;8.682;2024-01-06T08:25:48;4.93;;;2.47;;
65567;SDS011;52211;50.154;8.682;2024-01-06T08:28:17;4.30;;;2.70;;
65567;SDS011;52211;50.154;8.682;2024-01-06T08:30:49;4.80;;;3.10;;
65567;SDS011;52211;50.154;8.682;2024-01-06T08:33:16;3.70;;;2.80;;
65567;SDS011;52211;50.154;8.682;2024-01-06T08:35:49;2.73;;;2.50;;
65567;SDS011;52211;50.154;8.682;2024-01-06T08:38:16;3.80;;;2.30;;
65567;SDS011;52211;50.154;8.682;2024-01-06T08:40:48;3.20;;;2.70;;
65567;SDS011;52211;50.154;8.682;2024-01-06T08:43:20;5.37;;;2.80;;
65567;SDS011;52211;50.154;8.682;2024-01-06T08:45:49;6.67;;;3.07;;
65567;SDS011;52211;50.154;8.682;2024-01-06T08:48:19;2.67;;;2.40;;
65567;SDS011;52211;50.154;8.682;2024-01-06T08:50:48;3.40;;;3.10;;
65567;SDS011;52211;50.154;8.682;2024-01-06T08:53:19;2.77;;;2.43;;
65567;SDS011;52211;50.154;8.682;2024-01-06T08:55:49;2.70;;;2.20;;
65567;SDS011;52211;50.154;8.682;2024-01-06T08:58:15;5.93;;;3.03;;
65567;SDS011;52211;50.154;8.682;2024-01-06T09:00:43;4.53;;;3.07;;
65567;SDS011;52211;50.154;8.682;2024-01-06T09:03:13;6.43;;;3.00;;
65567;SDS011;52211;50.154;8.682;2024-01-06T09:05:45;3.23;;;2.73;;
65567;SDS011;52211;50.154;8.682;2024-01-06T09:08:14;4.00;;;3.20;;
65567;SDS011;52211;50.154;8.682;2024-01-06T09:10:43;3.13;;;2.83;;
65567;SDS011;52211;50.154;8.682;2024-01-06T09:13:10;3.17;;;2.80;;
65567;SDS011;52211;50.154;8.682;2024-01-06T09:15:37;3.90;;;3.03;;
65567;SDS011;52211;50.154;8.682;2024-01-06T09:18:04;3.57;;;3.27;;
65567;SDS011;52211;50.154;8.682;2024-01-06T09:20:31;6.90;;;3.00;;
65567;SDS011;52211;50.154;8.682;2024-01-06T09:22:58;3.23;;;2.50;;
65567;SDS011;52211;50.154;8.682;2024-01-06T09:25:27;3.23;;;2.60;;
65567;SDS011;52211;50.154;8.682;2024-01-06T09:27:57;5.27;;;2.93;;
65567;SDS011;52211;50.154;8.682;2024-01-06T09:30:29;4.80;;;2.93;;
65567;SDS011;52211;50.154;8.682;2024-01-06T09:33:01;4.23;;;2.97;;
65567;SDS011;52211;50.154;8.682;2024-01-06T09:35:28;6.13;;;3.03;;
65567;SDS011;52211;50.154;8.682;2024-01-06T09:37:57;6.63;;;2.83;;
65567;SDS011;52211;50.154;8.682;2024-01-06T09:40:27;2.67;;;2.47;;
65567;SDS011;52211;50.154;8.682;2024-01-06T09:42:58;3.17;;;2.50;;
65567;SDS011;52211;50.154;8.682;2024-01-06T09:45:25;4.13;;;2.87;;
65567;SDS011;52211;50.154;8.682;2024-01-06T09:47:52;4.90;;;3.00;;
65567;SDS011;52211;50.154;8.682;2024-01-06T09:50:21;7.20;;;3.37;;
65567;SDS011;52211;50.154;8.682;2024-01-06T09:52:48;4.37;;;3.17;;
65567;SDS011;52211;50.154;8.682;2024-01-06T09:55:26;4.93;;;3.37;;
65567;SDS011;52211;50.154;8.682;2024-01-06T09:57:55;4.17;;;3.50;;
65567;SDS011;52211;50.154;8.682;2024-01-06T10:00:25;3.40;;;3.10;;
65567;SDS011;52211;50.154;8.682;2024-01-06T10:02:52;5.43;;;3.60;;
65567;SDS011;52211;50.154;8.682;2024-01-06T10:05:26;3.40;;;3.10;;
65567;SDS011;52211;50.154;8.682;2024-01-06T10:07:57;3.40;;;3.10;;
65567;SDS011;52211;50.154;8.682;2024-01-06T10:10:30;4.43;;;3.50;;
65567;SDS011;52211;50.154;8.682;2024-01-06T10:13:00;4.03;;;3.07;;
65567;SDS011;52211;50.154;8.682;2024-01-06T10:15:29;5.90;;;3.40;;
65567;SDS011;52211;50.154;8.682;2024-01-06T10:18:06;3.73;;;2.60;;
65567;SDS011;52211;50.154;8.682;2024-01-06T10:20:38;3.50;;;3.07;;
65567;SDS011;52211;50.154;8.682;2024-01-06T10:23:07;4.83;;;2.97;;
65567;SDS011;52211;50.154;8.682;2024-01-06T10:25:34;5.47;;;3.07;;
65567;SDS011;52211;50.154;8.682;2024-01-06T10:28:02;5.20;;;3.27;;
65567;SDS011;52211;50.154;8.682;2024-01-06T10:30:33;3.93;;;2.97;;
65567;SDS011;52211;50.154;8.682;2024-01-06T10:33:08;3.33;;;3.03;;
65567;SDS011;52211;50.154;8.682;2024-01-06T10:35:39;3.03;;;2.73;;
65567;SDS011;52211;50.154;8.682;2024-01-06T10:38:11;5.10;;;3.87;;
65567;SDS011;52211;50.154;8.682;2024-01-06T10:40:38;2.87;;;2.57;;
65567;SDS011;52211;50.154;8.682;2024-01-06T10:43:05;3.57;;;3.03;;
65567;SDS011;52211;50.154;8.682;2024-01-06T10:45:39;4.33;;;3.33;;
65567;SDS011;52211;50.154;8.682;2024-01-06T10:48:11;4.70;;;2.90;;
65567;SDS011;52211;50.154;8.682;2024-01-06T10:50:43;3.87;;;2.90;;
65567;SDS011;52211;50.154;8.682;2024-01-06T10:53:10;5.60;;;3.23;;
65567;SDS011;52211;50.154;8.682;2024-01-06T10:55:41;4.73;;;3.60;;
65567;SDS011;52211;50.154;8.682;2024-01-06T10:58:11;7.07;;;3.77;;
65567;SDS011;52211;50.154;8.682;2024-01-06T11:00:44;4.47;;;3.60;;
65567;SDS011;52211;50.154;8.682;2024-01-06T11:03:17;7.10;;;3.93;;
65567;SDS011;52211;50.154;8.682;2024-01-06T11:05:50;4.43;;;3.47;;
65567;SDS011;52211;50.154;8.682;2024-01-06T11:08:17;4.97;;;3.43;;
65567;SDS011;52211;50.154;8.682;2024-01-06T11:10:49;6.53;;;3.27;;
65567;SDS011;52211;50.154;8.682;2024-01-06T11:13:21;3.43;;;2.73;;
65567;SDS011;52211;50.154;8.682;2024-01-06T11:15:55;3.47;;;3.17;;
65567;SDS011;52211;50.154;8.682;2024-01-06T11:23:43;3.40;;;3.03;;
65567;SDS011;52211;50.154;8.682;2024-01-06T11:26:13;4.80;;;3.20;;
65567;SDS011;52211;50.154;8.682;2024-01-06T11:28:44;3.83;;;3.43;;
65567;SDS011;52211;50.154;8.682;2024-01-06T11:31:12;4.70;;;3.53;;
65567;SDS011;52211;50.154;8.682;2024-01-06T11:33:43;4.43;;;3.50;;
65567;SDS011;52211;50.154;8.682;2024-01-06T11:36:20;6.23;;;4.17;;
65567;SDS011;52211;50.154;8.682;2024-01-06T11:38:48;7.23;;;3.40;;
65567;SDS011;52211;50.154;8.682;2024-01-06T11:41:52;6.03;;;3.40;;
65567;SDS011;52211;50.154;8.682;2024-01-06T11:44:22;4.83;;;3.17;;
65567;SDS011;52211;50.154;8.682;2024-01-06T11:46:49;4.03;;;2.87;;
65567;SDS011;52211;50.154;8.682;2024-01-06T11:49:25;5.83;;;3.17;;
65567;SDS011;52211;50.154;8.682;2024-01-06T11:51:58;4.93;;;3.00;;
65567;SDS011;52211;50.154;8.682;2024-01-06T11:54:26;2.87;;;2.67;;
65567;SDS011;52211;50.154;8.682;2024-01-06T11:56:56;3.20;;;2.90;;
65567;SDS011;52211;50.154;8.682;2024-01-06T11:59:23;5.53;;;3.87;;
65567;SDS011;52211;50.154;8.682;2024-01-06T12:01:53;6.70;;;4.00;;
65567;SDS011;52211;50.154;8.682;2024-01-06T12:04:22;3.70;;;3.40;;
65567;SDS011;52211;50.154;8.682;2024-01-06T12:07:06;5.10;;;3.30;;
65567;SDS011;52211;50.154;8.682;2024-01-06T12:09:39;3.23;;;2.93;;
65567;SDS011;52211;50.154;8.682;2024-01-06T12:12:06;3.50;;;3.20;;
65567;SDS011;52211;50.154;8.682;2024-01-06T12:14:36;3.63;;;3.13;;
65567;SDS011;52211;50.154;8.682;2024-01-06T12:17:07;3.73;;;3.30;;
65567;SDS011;52211;50.154;8.682;2024-01-06T12:19:39;2.77;;;2.57;;
65567;SDS011;52211;50.154;8.682;2024-01-06T12:22:10;5.53;;;3.77;;
65567;SDS011;52211;50.154;8.682;2024-01-06T12:24:44;4.67;;;3.37;;
65567;SDS011;52211;50.154;8.682;2024-01-06T12:27:16;5.83;;;3.20;;
65567;SDS011;52211;50.154;8.682;2024-01-06T12:29:47;3.43;;;3.13;;
65567;SDS011;52211;50.154;8.682;2024-01-06T12:32:14;5.03;;;3.20;;
65567;SDS011;52211;50.154;8.682;2024-01-06T12:34:41;3.40;;;3.10;;
65567;SDS011;52211;50.154;8.682;2024-01-06T12:37:13;4.70;;;3.73;;
65567;SDS011;52211;50.154;8.682;2024-01-06T12:39:40;4.03;;;2.77;;
65567;SDS011;52211;50.154;8.682;2024-01-06T12:42:13;3.57;;;3.27;;
65567;SDS011;52211;50.154;8.682;2024-01-06T12:44:48;3.87;;;3.33;;
65567;SDS011;52211;50.154;8.682;2024-01-06T12:47:21;3.93;;;2.93;;
65567;SDS011;52211;50.154;8.682;2024-01-06T12:49:51;3.80;;;3.50;;
65567;SDS011;52211;50.154;8.682;2024-01-06T12:52:18;4.77;;;3.07;;
65567;SDS011;52211;50.154;8.682;2024-01-06T12:54:48;7.03;;;3.70;;
65567;SDS011;52211;50.154;8.682;2024-01-06T12:57:17;4.10;;;3.70;;
65567;SDS011;52211;50.154;8.682;2024-01-06T12:59:49;3.37;;;3.17;;
65567;SDS011;52211;50.154;8.682;2024-01-06T13:02:18;3.70;;;3.40;;
65567;SDS011;52211;50.154;8.682;2024-01-06T13:04:47;3.73;;;3.40;;
65567;SDS011;52211;50.154;8.682;2024-01-06T13:07:16;4.30;;;3.50;;
65567;SDS011;52211;50.154;8.682;2024-01-06T13:09:46;4.53;;;3.47;;
65567;SDS011;52211;50.154;8.682;2024-01-06T13:12:13;4.87;;;3.30;;
65567;SDS011;52211;50.154;8.682;2024-01-06T13:14:45;3.70;;;3.17;;
65567;SDS011;52211;50.154;8.682;2024-01-06T13:17:17;3.80;;;3.10;;
65567;SDS011;52211;50.154;8.682;2024-01-06T13:19:44;4.17;;;3.10;;
65567;SDS011;52211;50.154;8.682;2024-01-06T13:22:16;5.07;;;3.10;;
65567;SDS011;52211;50.154;8.682;2024-01-06T13:24:47;5.07;;;3.37;;
65567;SDS011;52211;50.154;8.682;2024-01-06T13:27:21;2.80;;;2.60;;
65567;SDS011;52211;50.154;8.682;2024-01-06T13:29:48;3.27;;;2.83;;
65567;SDS011;52211;50.154;8.682;2024-01-06T13:32:15;5.13;;;3.00;;
65567;SDS011;52211;50.154;8.682;2024-01-06T13:34:43;4.50;;;3.40;;
65567;SDS011;52211;50.154;8.682;2024-01-06T13:37:12;3.13;;;2.73;;
65567;SDS011;52211;50.154;8.682;2024-01-06T13:39:41;3.60;;;2.80;;
65567;SDS011;52211;50.154;8.682;2024-01-06T13:42:13;4.43;;;3.57;;
65567;SDS011;52211;50.154;8.682;2024-01-06T13:44:47;3.53;;;3.23;;
65567;SDS011;52211;50.154;8.682;2024-01-06T13:47:14;5.60;;;2.90;;
65567;SDS011;52211;50.154;8.682;2024-01-06T13:49:41;3.53;;;3.20;;
65567;SDS011;52211;50.154;8.682;2024-01-06T13:52:11;4.53;;;3.43;;
65567;SDS011;52211;50.154;8.682;2024-01-06T13:54:38;3.30;;;3.00;;
65567;SDS011;52211;50.154;8.682;2024-01-06T13:57:05;3.37;;;3.07;;
65567;SDS011;52211;50.154;8.682;2024-01-06T13:59:34;3.47;;;3.10;;
65567;SDS011;52211;50.154;8.682;2024-01-06T14:02:05;5.83;;;3.30;;
65567;SDS011;52211;50.154;8.682;2024-01-06T14:04:34;5.53;;;3.17;;
65567;SDS011;52211;50.154;8.682;2024-01-06T14:07:01;3.00;;;2.73;;
65567;SDS011;52211;50.154;8.682;2024-01-06T14:09:30;4.20;;;3.23;;
65567;SDS011;52211;50.154;8.682;2024-01-06T14:12:03;3.67;;;2.80;;
65567;SDS011;52211;50.154;8.682;2024-01-06T14:14:35;5.37;;;3.10;;
65567;SDS011;52211;50.154;8.682;2024-01-06T14:17:04;4.50;;;3.63;;
65567;SDS011;52211;50.154;8.682;2024-01-06T14:19:33;3.50;;;3.20;;
65567;SDS011;52211;50.154;8.682;2024-01-06T14:22:00;3.30;;;3.00;;
65567;SDS011;52211;50.154;8.682;2024-01-06T14:24:33;5.37;;;3.60;;
65567;SDS011;52211;50.154;8.682;2024-01-06T14:26:59;4.20;;;3.50;;
65567;SDS011;52211;50.154;8.682;2024-01-06T14:29:27;4.37;;;3.10;;
65567;SDS011;52211;50.154;8.682;2024-01-06T14:31:54;4.97;;;3.13;;
65567;SDS011;52211;50.154;8.682;2024-01-06T14:34:25;3.80;;;3.37;;
65567;SDS011;52211;50.154;8.682;2024-01-06T14:37:00;4.00;;;3.17;;
65567;SDS011;52211;50.154;8.682;2024-01-06T14:39:27;4.00;;;3.60;;
65567;SDS011;52211;50.154;8.682;2024-01-06T14:41:56;4.03;;;3.60;;
65567;SDS011;52211;50.154;8.682;2024-01-06T14:44:23;3.80;;;3.33;;
65567;SDS011;52211;50.154;8.682;2024-01-06T14:46:57;4.23;;;3.30;;
65567;SDS011;52211;50.154;8.682;2024-01-06T14:49:26;4.23;;;3.57;;
65567;SDS011;52211;50.154;8.682;2024-01-06T14:51:53;3.93;;;3.40;;
65567;SDS011;52211;50.154;8.682;2024-01-06T14:54:22;4.23;;;3.47;;
65567;SDS011;52211;50.154;8.682;2024-01-06T14:56:52;3.60;;;3.13;;
65567;SDS011;52211;50.154;8.682;2024-01-06T14:59:22;4.10;;;3.30;;
65567;SDS011;52211;50.154;8.682;2024-01-06T15:01:51;3.97;;;3.50;;
65567;SDS011;52211;50.154;8.682;2024-01-06T15:04:20;2.90;;;2.53;;
65567;SDS011;52211;50.154;8.682;2024-01-06T15:06:47;3.70;;;3.23;;